createdAt,value
2019-05-02T00:00:34.220Z,7.89
2019-05-02T00:01:34.221Z,7.88
2019-05-02T00:02:34.188Z,7.99
2019-05-02T00:03:35.993Z,7.89
2019-05-02T00:04:35.163Z,7.95
2019-05-02T00:05:34.168Z,7.84
2019-05-02T00:06:38.077Z,7.91
2019-05-02T00:07:35.136Z,7.84
2019-05-02T00:08:34.418Z,7.89
2019-05-02T00:09:34.118Z,7.96
2019-05-02T00:10:34.108Z,7.95
2019-05-02T00:11:34.123Z,7.96
2019-05-02T00:12:34.085Z,7.95
2019-05-02T00:13:34.078Z,7.89
2019-05-02T00:14:34.059Z,7.96
2019-05-02T00:15:38.216Z,7.92
2019-05-02T00:16:35.071Z,7.96
2019-05-02T00:17:34.038Z,7.94
2019-05-02T00:18:37.126Z,7.96
2019-05-02T00:19:34.010Z,8.03
2019-05-02T00:20:34.004Z,7.92
2019-05-02T00:21:38.248Z,7.95
2019-05-02T00:22:35.002Z,8.07
2019-05-02T00:23:33.969Z,7.94
2019-05-02T00:24:39.095Z,7.94
2019-05-02T00:25:34.942Z,8.00
2019-05-02T00:26:33.936Z,8.00
2019-05-02T00:27:37.680Z,8.02
2019-05-02T00:28:33.939Z,8.10
2019-05-02T00:29:33.910Z,8.04
2019-05-02T00:30:34.583Z,7.99
2019-05-02T00:31:33.886Z,8.04
2019-05-02T00:32:33.869Z,7.96
2019-05-02T00:33:34.388Z,8.00
2019-05-02T00:34:33.880Z,7.99
2019-05-02T00:35:33.835Z,8.00
2019-05-02T00:36:33.864Z,8.12
2019-05-02T00:37:33.816Z,8.03
2019-05-02T00:38:38.526Z,8.04
2019-05-02T00:39:34.799Z,8.00
2019-05-02T00:40:33.796Z,8.00
2019-05-02T00:41:38.386Z,8.03
2019-05-02T00:42:34.790Z,8.04
2019-05-02T00:43:34.576Z,7.99
2019-05-02T00:44:33.750Z,8.00
2019-05-02T00:45:33.737Z,8.02
2019-05-02T00:46:34.999Z,8.10
2019-05-02T00:47:33.709Z,8.07
2019-05-02T00:48:33.735Z,8.03
2019-05-02T00:49:35.478Z,7.96
2019-05-02T00:50:33.696Z,7.95
2019-05-02T00:51:33.664Z,7.92
2019-05-02T00:52:36.688Z,7.79
2019-05-02T00:53:33.655Z,7.86
2019-05-02T00:54:33.661Z,7.86
2019-05-02T00:55:35.366Z,7.82
2019-05-02T00:56:33.628Z,7.81
2019-05-02T00:57:33.601Z,7.82
2019-05-02T00:58:33.592Z,7.81
2019-05-02T00:59:37.800Z,7.76
2019-05-02T01:00:34.595Z,7.73
2019-05-02T01:01:33.563Z,7.73
2019-05-02T01:02:35.822Z,7.79
2019-05-02T01:03:34.542Z,7.76
2019-05-02T01:04:33.536Z,7.74
2019-05-02T01:05:37.996Z,7.71
2019-05-02T01:06:33.517Z,7.63
2019-05-02T01:07:33.525Z,7.63
2019-05-02T01:08:35.676Z,7.67
2019-05-02T01:09:33.488Z,7.62
2019-05-02T01:10:33.467Z,7.57
2019-05-02T01:11:33.485Z,7.58
2019-05-02T01:12:33.443Z,7.54
2019-05-02T01:13:33.434Z,7.57
2019-05-02T01:14:33.428Z,7.51
2019-05-02T01:15:33.448Z,7.55
2019-05-02T01:16:33.400Z,7.51
2019-05-02T01:17:33.416Z,7.51
2019-05-02T01:18:37.189Z,7.52
2019-05-02T01:19:34.374Z,7.51
2019-05-02T01:20:33.364Z,7.55
2019-05-02T01:21:33.973Z,7.52
2019-05-02T01:22:34.349Z,7.57
2019-05-02T01:23:33.324Z,7.51
2019-05-02T01:24:34.098Z,7.55
2019-05-02T01:25:34.321Z,7.58
2019-05-02T01:26:33.303Z,7.50
2019-05-02T01:27:36.069Z,7.55
2019-05-02T01:28:34.292Z,7.55
2019-05-02T01:29:33.265Z,7.62
2019-05-02T01:30:37.192Z,7.55
2019-05-02T01:31:34.260Z,7.60
2019-05-02T01:32:33.237Z,7.67
2019-05-02T01:33:36.881Z,7.63
2019-05-02T01:34:34.220Z,7.69
2019-05-02T01:35:33.200Z,7.63
2019-05-02T01:36:36.788Z,7.69
2019-05-02T01:37:33.188Z,7.77
2019-05-02T01:38:33.799Z,7.77
2019-05-02T01:39:33.161Z,7.73
2019-05-02T01:40:33.157Z,7.77
2019-05-02T01:41:33.136Z,7.79
2019-05-02T01:42:39.728Z,7.76
2019-05-02T01:43:34.139Z,7.81
2019-05-02T01:44:36.474Z,7.81
2019-05-02T01:45:33.094Z,7.82
2019-05-02T01:46:33.101Z,7.84
2019-05-02T01:47:34.068Z,7.85
2019-05-02T01:48:33.055Z,7.84
2019-05-02T01:49:33.064Z,7.99
2019-05-02T01:50:33.519Z,7.92
2019-05-02T01:51:33.027Z,8.00
2019-05-02T01:52:33.017Z,7.96
2019-05-02T01:53:34.258Z,7.85
2019-05-02T01:54:33.027Z,8.02
2019-05-02T01:55:32.998Z,7.95
2019-05-02T01:56:34.780Z,7.88
2019-05-02T01:57:32.972Z,7.79
2019-05-02T01:58:32.960Z,7.88
2019-05-02T01:59:33.877Z,7.79
2019-05-02T02:00:32.969Z,7.81
2019-05-02T02:01:32.921Z,7.84
2019-05-02T02:02:34.022Z,7.84
2019-05-02T02:03:32.907Z,7.76
2019-05-02T02:04:32.902Z,7.89
2019-05-02T02:05:33.485Z,7.81
2019-05-02T02:06:32.898Z,7.85
2019-05-02T02:07:32.873Z,7.85
2019-05-02T02:08:34.018Z,7.79
2019-05-02T02:09:32.850Z,7.70
2019-05-02T02:10:32.827Z,7.74
2019-05-02T02:11:34.056Z,7.71
2019-05-02T02:12:32.803Z,7.71
2019-05-02T02:13:36.693Z,7.77
2019-05-02T02:14:33.779Z,7.69
2019-05-02T02:15:32.770Z,7.73
2019-05-02T02:16:35.264Z,7.79
2019-05-02T02:17:33.786Z,7.77
2019-05-02T02:18:32.752Z,7.76
2019-05-02T02:19:34.586Z,7.69
2019-05-02T02:20:33.728Z,7.73
2019-05-02T02:21:32.733Z,7.71
2019-05-02T02:22:33.912Z,7.63
2019-05-02T02:23:33.707Z,7.67
2019-05-02T02:24:32.686Z,7.62
2019-05-02T02:25:36.324Z,7.55
2019-05-02T02:26:32.666Z,7.62
2019-05-02T02:27:32.659Z,7.52
2019-05-02T02:28:33.214Z,7.58
2019-05-02T02:29:32.649Z,7.58
2019-05-02T02:30:32.623Z,7.54
2019-05-02T02:31:39.809Z,7.58
2019-05-02T02:32:33.588Z,7.55
2019-05-02T02:33:32.582Z,7.60
2019-05-02T02:34:32.670Z,7.62
2019-05-02T02:35:32.591Z,7.57
2019-05-02T02:36:34.872Z,7.54
2019-05-02T02:37:32.552Z,7.55
2019-05-02T02:38:33.768Z,7.67
2019-05-02T02:39:32.520Z,7.67
2019-05-02T02:40:33.517Z,7.63
2019-05-02T02:41:32.526Z,7.63
2019-05-02T02:42:34.198Z,7.62
2019-05-02T02:43:34.676Z,7.66
2019-05-02T02:44:33.595Z,7.62
2019-05-02T02:45:33.460Z,7.60
2019-05-02T02:46:37.717Z,7.67
2019-05-02T02:47:33.461Z,7.63
2019-05-02T02:48:33.525Z,7.69
2019-05-02T02:49:33.414Z,7.70
2019-05-02T02:50:36.646Z,7.67
2019-05-02T02:51:33.390Z,7.62
2019-05-02T02:52:37.798Z,7.70
2019-05-02T02:53:33.410Z,7.67
2019-05-02T02:54:36.575Z,7.66
2019-05-02T02:55:33.349Z,7.71
2019-05-02T02:56:34.533Z,7.66
2019-05-02T02:57:33.325Z,7.76
2019-05-02T02:58:44.119Z,7.73
2019-05-02T02:59:33.325Z,7.76
2019-05-02T03:00:32.302Z,7.74
2019-05-02T03:01:32.294Z,7.77
2019-05-02T03:02:32.277Z,7.76
2019-05-02T03:03:35.118Z,7.76
2019-05-02T03:04:32.275Z,7.79
2019-05-02T03:05:32.250Z,7.71
2019-05-02T03:06:32.238Z,7.74
2019-05-02T03:07:32.219Z,7.76
2019-05-02T03:08:32.207Z,7.82
2019-05-02T03:09:32.200Z,7.84
2019-05-02T03:10:32.245Z,7.81
2019-05-02T03:11:32.183Z,7.82
2019-05-02T03:12:36.158Z,7.82
2019-05-02T03:13:50.795Z,7.77
2019-05-02T03:14:33.146Z,7.82
2019-05-02T03:15:32.137Z,7.84
2019-05-02T03:16:32.154Z,7.85
2019-05-02T03:17:32.116Z,7.86
2019-05-02T03:18:39.806Z,7.86
2019-05-02T03:19:33.109Z,7.92
2019-05-02T03:20:40.016Z,7.94
2019-05-02T03:21:33.105Z,7.92
2019-05-02T03:22:34.807Z,7.92
2019-05-02T03:23:33.054Z,7.96
2019-05-02T03:24:36.535Z,8.00
2019-05-02T03:25:49.665Z,7.95
2019-05-02T03:26:33.021Z,7.94
2019-05-02T03:27:37.372Z,7.95
2019-05-02T03:28:33.015Z,7.99
2019-05-02T03:29:41.478Z,8.00
2019-05-02T03:30:37.284Z,7.95
2019-05-02T03:31:31.997Z,8.03
2019-05-02T03:32:35.701Z,8.07
2019-05-02T03:33:51.596Z,7.95
2019-05-02T03:34:47.525Z,7.95
2019-05-02T03:35:43.340Z,7.99
2019-05-02T03:36:36.349Z,7.95
2019-05-02T03:37:31.899Z,8.07
2019-05-02T03:38:35.063Z,7.95
2019-05-02T03:39:31.902Z,8.03
2019-05-02T03:40:38.454Z,7.94
2019-05-02T03:41:32.861Z,7.94
2019-05-02T03:42:43.671Z,8.04
2019-05-02T03:43:32.857Z,7.94
2019-05-02T03:44:31.828Z,7.96
2019-05-02T03:45:39.294Z,8.02
2019-05-02T03:46:32.804Z,7.99
2019-05-02T03:47:37.060Z,8.06
2019-05-02T03:48:32.785Z,8.07
2019-05-02T03:49:31.816Z,8.09
2019-05-02T03:50:34.986Z,8.09
2019-05-02T03:51:31.752Z,8.02
2019-05-02T03:52:36.707Z,8.06
2019-05-02T03:53:32.735Z,8.12
2019-05-02T03:54:31.718Z,8.03
2019-05-02T03:55:34.014Z,8.04
2019-05-02T03:56:31.694Z,8.06
2019-05-02T03:57:35.781Z,8.10
2019-05-02T03:58:31.681Z,8.09
2019-05-02T03:59:38.506Z,8.13
2019-05-02T04:00:32.681Z,8.18
2019-05-02T04:01:34.796Z,8.17
2019-05-02T04:02:32.638Z,8.18
2019-05-02T04:03:34.005Z,8.24
2019-05-02T04:04:32.627Z,8.24
2019-05-02T04:05:33.640Z,8.18
2019-05-02T04:06:32.629Z,8.25
2019-05-02T04:07:39.321Z,8.18
2019-05-02T04:08:32.568Z,8.25
2019-05-02T04:09:32.191Z,8.27
2019-05-02T04:10:32.551Z,8.27
2019-05-02T04:11:38.020Z,8.24
2019-05-02T04:12:33.209Z,8.32
2019-05-02T04:13:36.317Z,8.32
2019-05-02T04:14:37.864Z,8.36
2019-05-02T04:15:35.141Z,8.36
2019-05-02T04:16:31.515Z,8.31
2019-05-02T04:17:35.352Z,8.42
2019-05-02T04:18:32.496Z,8.42
2019-05-02T04:19:34.948Z,8.40
2019-05-02T04:20:31.444Z,8.46
2019-05-02T04:21:31.427Z,8.40
2019-05-02T04:22:31.438Z,8.45
2019-05-02T04:23:31.425Z,8.55
2019-05-02T04:24:31.460Z,8.42
2019-05-02T04:25:33.875Z,8.46
2019-05-02T04:26:31.381Z,8.46
2019-05-02T04:27:34.109Z,8.47
2019-05-02T04:28:31.371Z,8.45
2019-05-02T04:29:33.073Z,8.55
2019-05-02T04:30:31.357Z,8.60
2019-05-02T04:31:33.504Z,8.60
2019-05-02T04:32:31.315Z,8.58
2019-05-02T04:33:34.611Z,8.55
2019-05-02T04:34:32.296Z,8.54
2019-05-02T04:35:34.816Z,8.61
2019-05-02T04:36:32.297Z,8.68
2019-05-02T04:37:34.413Z,8.65
2019-05-02T04:38:44.418Z,8.70
2019-05-02T04:39:32.241Z,8.73
2019-05-02T04:40:34.893Z,8.76
2019-05-02T04:41:34.303Z,8.82
2019-05-02T04:42:31.244Z,8.78
2019-05-02T04:43:31.196Z,8.82
2019-05-02T04:44:40.906Z,8.76
2019-05-02T04:45:47.327Z,8.79
2019-05-02T04:46:32.160Z,8.78
2019-05-02T04:47:31.154Z,8.79
2019-05-02T04:48:34.689Z,8.80
2019-05-02T04:49:35.662Z,8.76
2019-05-02T04:50:31.123Z,8.83
2019-05-02T04:51:31.915Z,8.82
2019-05-02T04:52:31.126Z,8.76
2019-05-02T04:53:38.653Z,8.78
2019-05-02T04:54:32.706Z,8.79
2019-05-02T04:55:33.358Z,8.83
2019-05-02T04:56:31.063Z,8.89
2019-05-02T04:57:37.107Z,8.93
2019-05-02T04:58:36.539Z,8.89
2019-05-02T04:59:33.364Z,8.83
2019-05-02T05:00:31.036Z,8.88
2019-05-02T05:01:41.895Z,8.89
2019-05-02T05:02:36.760Z,8.88
2019-05-02T05:03:32.003Z,8.88
2019-05-02T05:04:33.454Z,8.88
2019-05-02T05:05:31.980Z,8.89
2019-05-02T05:06:30.940Z,8.85
2019-05-02T05:07:39.908Z,8.94
2019-05-02T05:08:32.135Z,8.86
2019-05-02T05:09:30.913Z,8.97
2019-05-02T05:10:40.131Z,8.80
2019-05-02T05:11:31.904Z,8.96
2019-05-02T05:12:32.579Z,8.97
2019-05-02T05:13:31.861Z,8.97
2019-05-02T05:14:38.178Z,8.80
2019-05-02T05:15:39.800Z,8.93
2019-05-02T05:16:31.834Z,8.85
2019-05-02T05:17:34.088Z,8.82
2019-05-02T05:18:30.803Z,8.88
2019-05-02T05:19:32.803Z,8.91
2019-05-02T05:20:30.789Z,8.86
2019-05-02T05:21:30.793Z,8.88
2019-05-02T05:22:30.761Z,8.88
2019-05-02T05:23:30.797Z,8.88
2019-05-02T05:24:32.693Z,8.98
2019-05-02T05:25:31.774Z,8.97
2019-05-02T05:26:33.966Z,8.88
2019-05-02T05:27:31.724Z,8.83
2019-05-02T05:28:35.118Z,8.94
2019-05-02T05:29:31.711Z,8.89
2019-05-02T05:30:30.686Z,8.86
2019-05-02T05:31:30.680Z,8.98
2019-05-02T05:32:30.656Z,9.04
2019-05-02T05:33:30.637Z,8.89
2019-05-02T05:34:32.560Z,8.97
2019-05-02T05:35:30.643Z,9.00
2019-05-02T05:36:33.926Z,8.89
2019-05-02T05:37:30.606Z,8.98
2019-05-02T05:38:32.709Z,8.98
2019-05-02T05:39:30.650Z,8.97
2019-05-02T05:40:32.136Z,8.83
2019-05-02T05:41:30.583Z,8.94
2019-05-02T05:42:33.379Z,8.82
2019-05-02T05:43:30.546Z,8.93
2019-05-02T05:44:32.635Z,9.00
2019-05-02T05:45:30.540Z,8.96
2019-05-02T05:46:33.268Z,9.00
2019-05-02T05:47:31.520Z,8.98
2019-05-02T05:48:32.083Z,8.93
2019-05-02T05:49:31.468Z,8.91
2019-05-02T05:50:32.314Z,8.97
2019-05-02T05:51:31.442Z,8.96
2019-05-02T05:52:33.186Z,8.98
2019-05-02T05:53:31.471Z,8.97
2019-05-02T05:54:33.182Z,9.03
2019-05-02T05:55:31.736Z,9.01
2019-05-02T05:56:32.540Z,8.98
2019-05-02T05:57:31.375Z,8.98
2019-05-02T05:58:30.370Z,9.01
2019-05-02T05:59:32.011Z,9.13
2019-05-02T06:00:30.346Z,9.12
2019-05-02T06:01:33.989Z,9.12
2019-05-02T06:02:31.334Z,9.17
2019-05-02T06:03:33.971Z,8.97
2019-05-02T06:04:33.267Z,9.12
2019-05-02T06:05:33.147Z,9.04
2019-05-02T06:06:31.279Z,9.03
2019-05-02T06:07:33.596Z,9.03
2019-05-02T06:08:31.287Z,9.03
2019-05-02T06:09:30.997Z,9.01
2019-05-02T06:10:30.235Z,9.04
2019-05-02T06:11:30.232Z,9.03
2019-05-02T06:12:35.144Z,9.15
2019-05-02T06:13:31.203Z,8.97
2019-05-02T06:14:30.217Z,9.12
2019-05-02T06:15:33.875Z,9.15
2019-05-02T06:16:31.181Z,9.20
2019-05-02T06:17:30.503Z,9.15
2019-05-02T06:18:30.144Z,9.17
2019-05-02T06:19:30.134Z,9.20
2019-05-02T06:20:30.548Z,9.22
2019-05-02T06:21:30.118Z,9.30
2019-05-02T06:22:30.098Z,9.19
2019-05-02T06:23:31.108Z,9.17
2019-05-02T06:24:33.743Z,9.24
2019-05-02T06:25:34.282Z,9.22
2019-05-02T06:26:31.116Z,9.32
2019-05-02T06:27:30.447Z,9.31
2019-05-02T06:28:30.044Z,9.37
2019-05-02T06:29:30.022Z,9.32
2019-05-02T06:30:31.003Z,9.32
2019-05-02T06:31:30.016Z,9.38
2019-05-02T06:32:30.022Z,9.31
2019-05-02T06:33:30.459Z,9.40
2019-05-02T06:34:29.975Z,9.37
2019-05-02T06:35:29.959Z,9.40
2019-05-02T06:36:32.039Z,9.40
2019-05-02T06:37:30.973Z,9.35
2019-05-02T06:38:29.937Z,9.35
2019-05-02T06:39:31.982Z,9.32
2019-05-02T06:40:29.922Z,9.31
2019-05-02T06:41:29.900Z,9.38
2019-05-02T06:42:32.803Z,9.35
2019-05-02T06:43:29.901Z,9.32
2019-05-02T06:44:29.862Z,9.44
2019-05-02T06:45:32.291Z,9.37
2019-05-02T06:46:30.836Z,9.37
2019-05-02T06:47:29.827Z,9.37
2019-05-02T06:48:29.993Z,9.27
2019-05-02T06:49:29.835Z,9.44
2019-05-02T06:50:33.364Z,9.27
2019-05-02T06:51:30.791Z,9.35
2019-05-02T06:52:32.744Z,9.38
2019-05-02T06:53:29.770Z,9.37
2019-05-02T06:54:29.759Z,9.30
2019-05-02T06:55:36.232Z,9.41
2019-05-02T06:56:30.732Z,9.37
2019-05-02T06:57:29.723Z,9.27
2019-05-02T06:58:29.708Z,9.31
2019-05-02T06:59:29.701Z,9.38
2019-05-02T07:00:39.586Z,9.34
2019-05-02T07:01:30.684Z,9.32
2019-05-02T07:02:33.684Z,9.31
2019-05-02T07:03:30.662Z,9.30
2019-05-02T07:04:29.661Z,9.30
2019-05-02T07:05:29.693Z,9.30
2019-05-02T07:06:29.915Z,9.23
2019-05-02T07:07:31.333Z,9.19
2019-05-02T07:08:29.652Z,9.19
2019-05-02T07:09:40.416Z,9.20
2019-05-02T07:10:43.590Z,9.20
2019-05-02T07:11:33.197Z,9.22
2019-05-02T07:12:30.557Z,9.24
2019-05-02T07:13:29.556Z,9.30
2019-05-02T07:14:29.542Z,9.41
2019-05-02T07:15:33.633Z,9.31
2019-05-02T07:16:38.553Z,9.35
2019-05-02T07:17:32.044Z,9.38
2019-05-02T07:18:29.503Z,9.41
2019-05-02T07:19:29.509Z,9.38
2019-05-02T07:20:29.492Z,9.37
2019-05-02T07:21:29.464Z,9.26
2019-05-02T07:22:33.065Z,9.40
2019-05-02T07:23:30.460Z,9.27
2019-05-02T07:24:30.743Z,9.24
2019-05-02T07:25:29.437Z,9.20
2019-05-02T07:26:29.412Z,9.22
2019-05-02T07:27:33.690Z,9.26
2019-05-02T07:28:30.386Z,9.20
2019-05-02T07:29:29.402Z,9.26
2019-05-02T07:30:30.099Z,9.26
2019-05-02T07:31:30.350Z,9.24
2019-05-02T07:32:29.352Z,9.15
2019-05-02T07:33:32.427Z,9.24
2019-05-02T07:34:30.347Z,9.20
2019-05-02T07:35:29.312Z,9.19
2019-05-02T07:36:31.067Z,9.24
2019-05-02T07:37:30.286Z,9.22
2019-05-02T07:38:29.276Z,9.30
2019-05-02T07:39:29.272Z,9.40
2019-05-02T07:40:29.290Z,9.40
2019-05-02T07:41:30.290Z,9.52
2019-05-02T07:42:29.300Z,9.52
2019-05-02T07:43:29.225Z,9.58
2019-05-02T07:44:32.631Z,9.53
2019-05-02T07:45:30.231Z,9.52
2019-05-02T07:46:29.197Z,9.58
2019-05-02T07:47:29.192Z,9.48
2019-05-02T07:48:29.184Z,9.44
2019-05-02T07:49:32.342Z,9.50
2019-05-02T07:50:29.149Z,9.53
2019-05-02T07:51:29.198Z,9.49
2019-05-02T07:52:33.553Z,9.49
2019-05-02T07:53:29.126Z,9.44
2019-05-02T07:54:29.141Z,9.38
2019-05-02T07:55:30.612Z,9.41
2019-05-02T07:56:29.086Z,9.45
2019-05-02T07:57:30.515Z,9.42
2019-05-02T07:58:29.062Z,9.40
2019-05-02T07:59:29.048Z,9.41
2019-05-02T08:00:32.123Z,9.31
2019-05-02T08:01:30.038Z,9.31
2019-05-02T08:02:29.026Z,9.34
2019-05-02T08:03:33.304Z,9.31
2019-05-02T08:04:29.007Z,9.31
2019-05-02T08:05:28.983Z,9.17
2019-05-02T08:06:35.472Z,9.13
2019-05-02T08:07:34.143Z,9.17
2019-05-02T08:08:29.768Z,9.16
2019-05-02T08:09:28.971Z,9.16
2019-05-02T08:10:28.949Z,9.17
2019-05-02T08:11:32.256Z,9.13
2019-05-02T08:12:29.911Z,9.15
2019-05-02T08:13:31.337Z,9.15
2019-05-02T08:14:29.279Z,9.04
2019-05-02T08:15:29.913Z,9.04
2019-05-02T08:16:28.872Z,9.08
2019-05-02T08:17:28.855Z,9.04
2019-05-02T08:18:30.452Z,9.06
2019-05-02T08:19:28.842Z,9.08
2019-05-02T08:20:28.827Z,9.12
2019-05-02T08:21:32.608Z,9.00
2019-05-02T08:22:29.801Z,9.12
2019-05-02T08:23:28.795Z,9.03
2019-05-02T08:24:32.971Z,9.13
2019-05-02T08:25:29.777Z,9.06
2019-05-02T08:26:28.757Z,9.12
2019-05-02T08:27:29.268Z,9.13
2019-05-02T08:28:29.736Z,9.10
2019-05-02T08:29:30.478Z,9.15
2019-05-02T08:30:28.715Z,9.13
2019-05-02T08:31:30.235Z,9.15
2019-05-02T08:32:28.697Z,9.13
2019-05-02T08:33:29.234Z,9.15
2019-05-02T08:34:29.670Z,9.12
2019-05-02T08:35:28.674Z,9.01
2019-05-02T08:36:28.651Z,8.98
2019-05-02T08:37:28.656Z,9.06
2019-05-02T08:38:28.636Z,9.04
2019-05-02T08:39:33.271Z,9.01
2019-05-02T08:40:29.620Z,9.01
2019-05-02T08:41:28.593Z,9.10
2019-05-02T08:42:32.658Z,9.13
2019-05-02T08:43:29.574Z,9.00
2019-05-02T08:44:28.566Z,8.96
2019-05-02T08:45:33.097Z,8.94
2019-05-02T08:46:29.623Z,8.94
2019-05-02T08:47:30.417Z,9.01
2019-05-02T08:48:28.517Z,8.94
2019-05-02T08:49:28.514Z,8.88
2019-05-02T08:50:31.932Z,8.83
2019-05-02T08:51:28.508Z,8.89
2019-05-02T08:52:28.471Z,8.86
2019-05-02T08:53:28.465Z,8.88
2019-05-02T08:54:32.891Z,8.86
2019-05-02T08:55:29.959Z,8.88
2019-05-02T08:56:28.437Z,8.89
2019-05-02T08:57:29.955Z,8.85
2019-05-02T08:58:29.401Z,8.85
2019-05-02T08:59:28.396Z,8.86
2019-05-02T09:00:32.083Z,8.88
2019-05-02T09:01:35.383Z,8.89
2019-05-02T09:02:40.809Z,8.88
2019-05-02T09:03:29.361Z,8.83
2019-05-02T09:04:29.147Z,8.86
2019-05-02T09:05:28.334Z,8.79
2019-05-02T09:06:28.341Z,8.83
2019-05-02T09:07:31.566Z,8.76
2019-05-02T09:08:29.327Z,8.80
2019-05-02T09:09:29.579Z,8.83
2019-05-02T09:10:28.273Z,8.83
2019-05-02T09:11:28.263Z,8.75
2019-05-02T09:12:28.262Z,8.79
2019-05-02T09:13:29.532Z,8.76
2019-05-02T09:14:28.260Z,8.80
2019-05-02T09:15:28.232Z,8.85
2019-05-02T09:16:29.271Z,8.75
2019-05-02T09:17:37.740Z,8.85
2019-05-02T09:18:35.139Z,8.85
2019-05-02T09:19:34.039Z,8.82
2019-05-02T09:20:29.165Z,8.80
2019-05-02T09:21:34.146Z,8.79
2019-05-02T09:22:29.145Z,8.88
2019-05-02T09:23:33.235Z,8.85
2019-05-02T09:24:29.122Z,8.89
2019-05-02T09:25:28.147Z,8.89
2019-05-02T09:26:36.068Z,8.97
2019-05-02T09:27:29.089Z,8.89
2019-05-02T09:28:28.082Z,8.83
2019-05-02T09:29:28.099Z,8.94
2019-05-02T09:30:28.059Z,8.91
2019-05-02T09:31:28.076Z,8.79
2019-05-02T09:32:28.034Z,8.97
2019-05-02T09:33:28.026Z,8.94
2019-05-02T09:34:28.017Z,8.85
2019-05-02T09:35:28.011Z,8.94
2019-05-02T09:36:27.991Z,8.79
2019-05-02T09:37:28.064Z,8.91
2019-05-02T09:38:27.991Z,8.97
2019-05-02T09:39:32.681Z,8.96
2019-05-02T09:40:28.974Z,8.96
2019-05-02T09:41:34.423Z,8.97
2019-05-02T09:42:28.946Z,9.00
2019-05-02T09:43:29.328Z,8.97
2019-05-02T09:44:28.936Z,8.98
2019-05-02T09:45:32.731Z,9.01
2019-05-02T09:46:28.908Z,8.98
2019-05-02T09:47:33.077Z,9.13
2019-05-02T09:48:28.889Z,8.94
2019-05-02T09:49:27.894Z,9.03
2019-05-02T09:50:31.440Z,8.98
2019-05-02T09:51:28.825Z,9.03
2019-05-02T09:52:34.104Z,9.10
2019-05-02T09:53:28.821Z,9.00
2019-05-02T09:54:27.836Z,9.01
2019-05-02T09:55:27.786Z,9.04
2019-05-02T09:56:27.793Z,8.98
2019-05-02T09:57:27.759Z,9.01
2019-05-02T09:58:27.759Z,9.00
2019-05-02T09:59:30.365Z,9.04
2019-05-02T10:00:32.367Z,9.01
2019-05-02T10:01:28.721Z,8.96
2019-05-02T10:02:27.709Z,9.13
2019-05-02T10:03:27.701Z,9.06
2019-05-02T10:04:27.688Z,9.12
2019-05-02T10:05:27.675Z,9.12
2019-05-02T10:06:27.878Z,9.10
2019-05-02T10:07:27.666Z,9.15
2019-05-02T10:08:27.649Z,9.10
2019-05-02T10:09:27.669Z,9.17
2019-05-02T10:10:27.635Z,9.17
2019-05-02T10:11:27.611Z,9.19
2019-05-02T10:12:27.642Z,9.13
2019-05-02T10:13:27.589Z,9.20
2019-05-02T10:14:27.581Z,9.19
2019-05-02T10:15:27.570Z,9.20
2019-05-02T10:16:27.585Z,9.31
2019-05-02T10:17:27.537Z,9.38
2019-05-02T10:18:30.147Z,9.30
2019-05-02T10:19:27.515Z,9.40
2019-05-02T10:20:34.077Z,9.40
2019-05-02T10:21:28.503Z,9.37
2019-05-02T10:22:32.285Z,9.41
2019-05-02T10:23:28.497Z,9.35
2019-05-02T10:24:27.472Z,9.44
2019-05-02T10:25:32.643Z,9.49
2019-05-02T10:26:28.439Z,9.50
2019-05-02T10:27:27.445Z,9.58
2019-05-02T10:28:27.424Z,9.52
2019-05-02T10:29:28.392Z,9.49
2019-05-02T10:30:27.433Z,9.58
2019-05-02T10:31:31.943Z,9.63
2019-05-02T10:32:28.378Z,9.67
2019-05-02T10:33:28.018Z,9.68
2019-05-02T10:34:27.349Z,9.65
2019-05-02T10:35:28.117Z,9.65
2019-05-02T10:36:28.337Z,9.59
2019-05-02T10:37:31.785Z,9.68
2019-05-02T10:38:28.316Z,9.70
2019-05-02T10:39:28.427Z,9.63
2019-05-02T10:40:28.322Z,9.78
2019-05-02T10:41:33.462Z,9.71
2019-05-02T10:42:28.274Z,9.71
2019-05-02T10:43:27.264Z,9.74
2019-05-02T10:44:31.948Z,9.85
2019-05-02T10:45:28.233Z,9.71
2019-05-02T10:46:27.893Z,9.78
2019-05-02T10:47:27.219Z,9.83
2019-05-02T10:48:28.704Z,9.86
2019-05-02T10:49:27.201Z,9.86
2019-05-02T10:50:27.184Z,9.93
2019-05-02T10:51:27.191Z,9.88
2019-05-02T10:52:33.915Z,9.91
2019-05-02T10:53:28.143Z,10.04
2019-05-02T10:54:28.066Z,9.99
2019-05-02T10:55:28.126Z,9.88
2019-05-02T10:56:27.117Z,10.04
2019-05-02T10:57:27.112Z,9.88
2019-05-02T10:58:34.166Z,10.01
2019-05-02T10:59:28.085Z,10.13
2019-05-02T11:00:27.067Z,9.99
2019-05-02T11:01:27.062Z,9.99
2019-05-02T11:02:27.049Z,9.91
2019-05-02T11:03:27.038Z,10.01
2019-05-02T11:04:29.282Z,10.06
2019-05-02T11:05:27.023Z,9.99
2019-05-02T11:06:27.008Z,10.02
2019-05-02T11:07:26.994Z,10.10
2019-05-02T11:08:26.995Z,10.04
2019-05-02T11:09:26.971Z,10.10
2019-05-02T11:10:26.994Z,10.09
2019-05-02T11:11:26.953Z,10.13
2019-05-02T11:12:40.664Z,10.16
2019-05-02T11:13:27.923Z,10.10
2019-05-02T11:14:26.917Z,10.10
2019-05-02T11:15:26.936Z,10.16
2019-05-02T11:16:26.919Z,10.13
2019-05-02T11:17:26.886Z,10.16
2019-05-02T11:18:39.503Z,10.26
2019-05-02T11:19:27.860Z,10.24
2019-05-02T11:20:26.850Z,10.24
2019-05-02T11:21:26.845Z,10.22
2019-05-02T11:22:26.885Z,10.18
2019-05-02T11:23:26.854Z,10.26
2019-05-02T11:24:26.805Z,10.24
2019-05-02T11:25:26.824Z,10.29
2019-05-02T11:26:26.795Z,10.31
2019-05-02T11:27:26.781Z,10.29
2019-05-02T11:28:26.823Z,10.28
2019-05-02T11:29:26.756Z,10.34
2019-05-02T11:30:26.800Z,10.32
2019-05-02T11:31:26.731Z,10.42
2019-05-02T11:32:26.733Z,10.36
2019-05-02T11:33:26.712Z,10.39
2019-05-02T11:34:26.722Z,10.42
2019-05-02T11:35:26.694Z,10.47
2019-05-02T11:36:27.516Z,10.43
2019-05-02T11:37:26.683Z,10.43
2019-05-02T11:38:27.227Z,10.43
2019-05-02T11:39:35.888Z,10.47
2019-05-02T11:40:27.662Z,10.49
2019-05-02T11:41:26.629Z,10.49
2019-05-02T11:42:27.327Z,10.55
2019-05-02T11:43:26.627Z,10.57
2019-05-02T11:44:26.631Z,10.60
2019-05-02T11:45:26.595Z,10.66
2019-05-02T11:46:26.600Z,10.58
2019-05-02T11:47:26.781Z,10.58
2019-05-02T11:48:26.550Z,10.62
2019-05-02T11:49:26.547Z,10.62
2019-05-02T11:50:26.786Z,10.60
2019-05-02T11:51:26.525Z,10.66
2019-05-02T11:52:27.527Z,10.69
2019-05-02T11:53:29.488Z,10.78
2019-05-02T11:54:27.794Z,10.83
2019-05-02T11:55:29.044Z,10.87
2019-05-02T11:56:26.459Z,10.88
2019-05-02T11:57:28.687Z,10.99
2019-05-02T11:58:26.467Z,10.86
2019-05-02T11:59:27.998Z,10.98
2019-05-02T12:00:26.432Z,11.03
2019-05-02T12:01:35.705Z,10.99
2019-05-02T12:02:27.562Z,11.03
2019-05-02T12:03:28.164Z,11.21
2019-05-02T12:04:27.449Z,11.26
2019-05-02T12:05:26.634Z,11.26
2019-05-02T12:06:26.401Z,11.27
2019-05-02T12:07:26.363Z,11.27
2019-05-02T12:08:26.360Z,11.30
2019-05-02T12:09:26.332Z,11.28
2019-05-02T12:10:27.948Z,11.20
2019-05-02T12:11:26.332Z,11.23
2019-05-02T12:12:27.300Z,11.23
2019-05-02T12:13:27.287Z,11.35
2019-05-02T12:14:27.495Z,11.36
2019-05-02T12:15:27.311Z,11.48
2019-05-02T12:16:26.252Z,11.48
2019-05-02T12:17:26.246Z,11.57
2019-05-02T12:18:26.243Z,11.56
2019-05-02T12:19:26.232Z,11.53
2019-05-02T12:20:28.596Z,11.63
2019-05-02T12:21:27.255Z,11.72
2019-05-02T12:22:26.193Z,11.70
2019-05-02T12:23:26.184Z,11.84
2019-05-02T12:24:26.183Z,11.84
2019-05-02T12:25:26.157Z,11.87
2019-05-02T12:26:26.147Z,12.00
2019-05-02T12:27:26.160Z,11.90
2019-05-02T12:28:26.128Z,11.87
2019-05-02T12:29:26.122Z,11.97
2019-05-02T12:30:28.972Z,11.82
2019-05-02T12:31:26.118Z,11.87
2019-05-02T12:32:26.099Z,11.85
2019-05-02T12:33:26.099Z,11.84
2019-05-02T12:34:26.057Z,11.75
2019-05-02T12:35:26.052Z,11.60
2019-05-02T12:36:26.097Z,11.63
2019-05-02T12:37:26.031Z,11.62
2019-05-02T12:38:26.023Z,11.64
2019-05-02T12:39:26.027Z,11.63
2019-05-02T12:40:25.996Z,11.63
2019-05-02T12:41:25.989Z,11.69
2019-05-02T12:42:26.108Z,11.79
2019-05-02T12:43:25.965Z,11.87
2019-05-02T12:44:25.962Z,11.84
2019-05-02T12:45:26.006Z,11.77
2019-05-02T12:46:28.387Z,11.67
2019-05-02T12:47:25.918Z,11.75
2019-05-02T12:48:25.911Z,11.85
2019-05-02T12:49:27.978Z,11.85
2019-05-02T12:50:25.906Z,11.81
2019-05-02T12:51:25.912Z,11.85
2019-05-02T12:52:25.869Z,11.82
2019-05-02T12:53:25.898Z,11.87
2019-05-02T12:54:25.895Z,11.82
2019-05-02T12:55:25.836Z,11.85
2019-05-02T12:56:25.829Z,11.85
2019-05-02T12:57:25.849Z,11.82
2019-05-02T12:58:25.811Z,11.84
2019-05-02T12:59:25.809Z,11.85
2019-05-02T13:00:25.785Z,11.75
2019-05-02T13:01:25.795Z,11.81
2019-05-02T13:02:25.776Z,11.82
2019-05-02T13:03:25.776Z,11.84
2019-05-02T13:04:25.742Z,11.94
2019-05-02T13:05:25.740Z,11.84
2019-05-02T13:06:25.712Z,11.96
2019-05-02T13:07:25.711Z,11.97
2019-05-02T13:08:25.694Z,11.85
2019-05-02T13:09:25.735Z,11.94
2019-05-02T13:10:25.692Z,11.96
2019-05-02T13:11:25.666Z,11.93
2019-05-02T13:12:25.657Z,11.88
2019-05-02T13:13:25.650Z,11.94